Time;durP1;ratioP1;P1;durP2;ratioP2;P2;SDS_P1;SDS_P2;PMS_P1;PMS_P2;Temp;Humidity;BMP_temperature;BMP_pressure;BME280_temperature;BME280_humidity;BME280_pressure;Samples;Min_cycle;Max_cycle;Signal;HPM_P1;HPM_P2
2021/10/01 00:02:43;;;;;;;13.43;7.97;;;4.50;99.90;;;;;;4418611;28;655538;-73
2021/10/01 00:05:31;;;;;;;15.80;8.10;;;4.60;99.90;;;;;;4397152;28;655357;-72
2021/10/01 00:08:19;;;;;;;15.77;6.82;;;4.50;99.90;;;;;;4422771;28;656728;-72
2021/10/01 00:11:08;;;;;;;16.97;6.50;;;4.60;99.90;;;;;;4396833;28;655787;-72
2021/10/01 00:13:56;;;;;;;13.87;5.73;;;4.50;99.90;;;;;;4415524;28;655749;-72
2021/10/01 00:16:45;;;;;;;10.70;5.83;;;4.50;99.90;;;;;;4432560;28;655584;-72
2021/10/01 00:19:34;;;;;;;13.33;5.83;;;4.50;99.90;;;;;;4416021;28;657609;-72
2021/10/01 00:22:21;;;;;;;9.37;5.70;;;4.50;99.90;;;;;;4409620;28;656130;-72
2021/10/01 00:25:09;;;;;;;13.57;5.40;;;4.50;99.90;;;;;;4431900;28;655226;-73
2021/10/01 00:27:58;;;;;;;17.27;6.73;;;4.50;99.90;;;;;;4394434;28;655831;-72
2021/10/01 00:30:46;;;;;;;10.30;6.20;;;4.50;99.90;;;;;;4406853;28;655500;-72
2021/10/01 00:33:33;;;;;;;12.80;5.93;;;4.50;99.90;;;;;;4415574;28;656287;-72
2021/10/01 00:36:21;;;;;;;14.03;6.00;;;4.40;99.90;;;;;;4397000;28;655846;-72
2021/10/01 00:39:08;;;;;;;11.73;6.10;;;4.40;99.90;;;;;;4433556;28;656029;-72
2021/10/01 00:41:56;;;;;;;10.70;6.47;;;4.40;99.90;;;;;;4414730;28;655695;-72
2021/10/01 00:44:45;;;;;;;11.77;6.17;;;4.40;99.90;;;;;;4433914;28;655976;-72
2021/10/01 00:47:32;;;;;;;8.27;5.30;;;4.40;99.90;;;;;;4407093;28;656189;-72
2021/10/01 00:50:21;;;;;;;9.37;5.37;;;4.30;99.90;;;;;;4434353;28;654508;-72
2021/10/01 00:53:08;;;;;;;9.07;5.37;;;4.30;99.90;;;;;;4424531;28;654827;-72
2021/10/01 00:55:56;;;;;;;12.80;5.70;;;4.30;99.90;;;;;;4397149;28;654300;-72
2021/10/01 00:58:43;;;;;;;10.70;6.23;;;4.30;99.90;;;;;;4419194;28;656223;-72
2021/10/01 01:01:32;;;;;;;10.63;6.13;;;4.30;99.90;;;;;;4396821;28;655843;-72
2021/10/01 01:04:20;;;;;;;11.33;5.87;;;4.30;99.90;;;;;;4428759;28;655444;-72
2021/10/01 01:07:12;;;;;;;12.20;5.50;;;4.30;99.90;;;;;;4396091;28;656853;-72
2021/10/01 01:10:04;;;;;;;15.30;5.57;;;4.30;99.90;;;;;;4383447;28;655634;-72
2021/10/01 01:12:56;;;;;;;10.37;5.80;;;4.30;99.90;;;;;;4369230;28;656439;-72
2021/10/01 01:15:47;;;;;;;9.43;5.20;;;4.20;99.90;;;;;;4399445;28;656477;-72
2021/10/01 01:18:38;;;;;;;11.10;6.30;;;4.20;99.90;;;;;;4395568;28;655217;-72
2021/10/01 01:21:30;;;;;;;11.10;6.23;;;4.20;99.90;;;;;;4371451;28;656697;-72
2021/10/01 01:24:29;;;;;;;13.33;6.30;;;4.20;99.90;;;;;;4383499;28;656657;-72
2021/10/01 01:27:20;;;;;;;10.57;5.27;;;4.20;99.90;;;;;;4404286;28;656103;-72
2021/10/01 01:30:12;;;;;;;10.63;4.77;;;4.20;99.90;;;;;;4409175;28;656797;-72
2021/10/01 01:33:01;;;;;;;12.87;4.83;;;4.10;99.90;;;;;;4404909;28;656720;-72
2021/10/01 01:35:49;;;;;;;9.57;5.63;;;4.20;99.90;;;;;;4416667;28;656219;-72
2021/10/01 01:38:40;;;;;;;8.90;4.63;;;4.20;99.90;;;;;;4422762;28;654414;-72
2021/10/01 01:41:27;;;;;;;11.97;5.70;;;4.20;99.90;;;;;;4415494;28;655543;-72
2021/10/01 01:44:15;;;;;;;10.27;5.57;;;4.20;99.90;;;;;;4420159;28;655957;-72
2021/10/01 01:47:03;;;;;;;7.93;4.43;;;4.20;99.90;;;;;;4395678;28;657275;-72
2021/10/01 01:49:52;;;;;;;14.40;5.13;;;4.10;99.90;;;;;;4408658;28;654586;-72
2021/10/01 01:52:40;;;;;;;9.40;4.70;;;4.20;99.90;;;;;;4430043;28;655585;-73
2021/10/01 01:55:28;;;;;;;9.27;4.27;;;4.10;99.90;;;;;;4396192;28;656104;-72
2021/10/01 01:58:16;;;;;;;8.27;4.17;;;4.10;99.90;;;;;;4405734;28;654844;-72
2021/10/01 02:01:04;;;;;;;12.27;4.90;;;4.10;99.90;;;;;;4432676;28;655597;-72
2021/10/01 02:03:52;;;;;;;10.97;4.60;;;4.10;99.90;;;;;;4416352;28;655486;-73
2021/10/01 02:06:40;;;;;;;11.73;4.40;;;4.10;99.90;;;;;;4443752;28;655793;-73
2021/10/01 02:09:30;;;;;;;9.47;4.27;;;4.10;99.90;;;;;;4415789;28;656523;-72
2021/10/01 02:12:19;;;;;;;8.05;4.20;;;4.10;99.90;;;;;;4419261;28;655838;-72
2021/10/01 02:15:07;;;;;;;8.50;4.30;;;4.00;99.90;;;;;;4419583;28;654321;-72
2021/10/01 02:17:55;;;;;;;12.97;4.73;;;4.00;99.90;;;;;;4432546;28;654561;-73
2021/10/01 02:20:42;;;;;;;7.90;4.03;;;4.00;99.90;;;;;;4415560;28;657052;-72
2021/10/01 02:23:31;;;;;;;7.30;4.20;;;4.00;99.90;;;;;;4437085;28;654636;-72
2021/10/01 02:26:34;;;;;;;15.23;4.53;;;4.10;99.90;;;;;;4417773;28;655446;-72
2021/10/01 02:29:25;;;;;;;10.07;4.90;;;4.10;99.90;;;;;;4412817;28;655667;-72
2021/10/01 02:32:18;;;;;;;10.33;5.10;;;4.10;99.90;;;;;;4418340;28;655795;-72
2021/10/01 02:35:06;;;;;;;9.17;5.07;;;4.00;99.90;;;;;;4391608;28;655599;-72
2021/10/01 02:37:54;;;;;;;11.13;4.77;;;4.00;99.90;;;;;;4437566;28;655334;-72
2021/10/01 02:40:43;;;;;;;10.47;4.80;;;4.00;99.90;;;;;;4413968;28;655653;-72
2021/10/01 02:43:34;;;;;;;7.97;4.73;;;4.00;99.90;;;;;;4410654;28;656017;-73
2021/10/01 02:46:21;;;;;;;9.87;5.87;;;4.00;99.90;;;;;;4410161;28;654984;-72
2021/10/01 02:49:09;;;;;;;13.00;5.87;;;3.90;99.90;;;;;;4448104;28;655525;-72
2021/10/01 02:51:59;;;;;;;13.60;6.53;;;3.90;99.90;;;;;;4422956;28;655435;-73
2021/10/01 02:54:50;;;;;;;11.07;5.97;;;3.90;99.90;;;;;;4380612;28;655678;-72
2021/10/01 02:57:45;;;;;;;14.17;6.53;;;3.90;99.90;;;;;;4406860;28;655481;-73
2021/10/01 03:00:32;;;;;;;19.50;6.90;;;3.90;99.90;;;;;;4361968;28;656257;-72
2021/10/01 03:03:22;;;;;;;13.87;7.20;;;3.90;99.90;;;;;;4428562;28;656080;-72
2021/10/01 03:06:09;;;;;;;12.20;6.77;;;3.90;99.90;;;;;;4410898;28;655764;-72
2021/10/01 03:08:57;;;;;;;16.10;6.83;;;3.90;99.90;;;;;;4398987;28;655340;-73
2021/10/01 03:11:45;;;;;;;13.93;6.47;;;3.80;99.90;;;;;;4422693;28;656233;-73
2021/10/01 03:14:34;;;;;;;11.40;7.17;;;3.80;99.90;;;;;;4402770;28;656378;-72
2021/10/01 03:17:21;;;;;;;11.20;6.43;;;3.80;99.90;;;;;;4405420;28;656946;-72
2021/10/01 03:20:10;;;;;;;11.07;6.70;;;3.80;99.90;;;;;;4405594;28;656717;-72
2021/10/01 03:22:58;;;;;;;13.48;6.10;;;3.80;99.90;;;;;;4388814;28;656203;-72
2021/10/01 03:25:45;;;;;;;13.83;6.10;;;3.80;99.90;;;;;;4408617;28;656156;-73
2021/10/01 03:28:33;;;;;;;12.43;6.33;;;3.80;99.90;;;;;;4439961;28;656218;-72
2021/10/01 03:31:24;;;;;;;14.27;6.20;;;3.80;99.90;;;;;;4415503;28;656222;-73
2021/10/01 03:34:12;;;;;;;14.80;7.20;;;3.80;99.90;;;;;;4418767;28;656208;-73
2021/10/01 03:36:59;;;;;;;14.27;7.53;;;3.80;99.90;;;;;;4428676;28;655819;-72
2021/10/01 03:39:55;;;;;;;16.47;7.63;;;3.80;99.90;;;;;;4406022;28;655999;-72
2021/10/01 03:42:43;;;;;;;15.88;8.55;;;3.80;99.90;;;;;;4420226;28;655310;-72
2021/10/01 03:45:30;;;;;;;18.23;7.20;;;3.90;99.90;;;;;;4428783;28;655961;-72
2021/10/01 03:48:20;;;;;;;14.37;7.10;;;3.80;99.90;;;;;;4433795;28;657041;-72
2021/10/01 03:51:08;;;;;;;12.47;7.20;;;3.80;99.90;;;;;;4393182;28;656651;-72
2021/10/01 03:53:57;;;;;;;13.50;6.97;;;3.80;99.90;;;;;;4423459;28;656246;-72
2021/10/01 03:56:45;;;;;;;14.70;6.93;;;3.80;99.90;;;;;;4436061;28;657247;-72
2021/10/01 03:59:32;;;;;;;13.90;7.40;;;3.80;99.90;;;;;;4410262;28;656059;-72
2021/10/01 04:02:21;;;;;;;17.70;8.20;;;3.80;99.90;;;;;;4410542;28;655549;-72
2021/10/01 04:05:10;;;;;;;17.77;7.95;;;3.90;99.90;;;;;;4421843;28;656701;-72
2021/10/01 04:07:58;;;;;;;13.30;7.43;;;3.80;99.90;;;;;;4376644;28;656235;-72
2021/10/01 04:10:48;;;;;;;10.17;6.97;;;3.80;99.90;;;;;;4402915;28;656334;-73
2021/10/01 04:13:36;;;;;;;14.97;7.67;;;3.80;99.90;;;;;;4416965;28;655237;-72
2021/10/01 04:16:23;;;;;;;11.50;6.57;;;3.90;99.90;;;;;;4421760;28;656815;-71
2021/10/01 04:19:11;;;;;;;13.53;7.90;;;3.80;99.90;;;;;;4409732;28;655678;-72
2021/10/01 04:21:59;;;;;;;14.50;7.67;;;3.80;99.90;;;;;;4419505;28;655938;-72
2021/10/01 04:24:47;;;;;;;14.17;7.50;;;3.90;99.90;;;;;;4404053;28;656163;-72
2021/10/01 04:27:37;;;;;;;17.27;7.73;;;3.90;99.90;;;;;;4424593;28;656008;-72
2021/10/01 04:30:24;;;;;;;12.03;7.17;;;3.90;99.90;;;;;;4394070;28;655509;-72
2021/10/01 04:33:17;;;;;;;18.80;7.73;;;4.00;99.90;;;;;;4400058;28;656418;-72
2021/10/01 04:36:51;;;;;;;20.00;10.30;;;3.90;99.90;;;;;;4375206;28;655763;-72
2021/10/01 04:39:40;;;;;;;28.33;9.97;;;3.90;99.90;;;;;;4377611;28;657362;-72
2021/10/01 04:42:27;;;;;;;19.60;8.47;;;3.90;99.90;;;;;;4374550;28;657092;-72
2021/10/01 04:45:15;;;;;;;32.43;16.47;;;3.90;99.90;;;;;;4378880;28;655967;-72
2021/10/01 04:48:05;;;;;;;16.60;10.20;;;3.90;99.90;;;;;;4374579;28;656847;-72
2021/10/01 04:50:52;;;;;;;21.47;12.03;;;4.00;99.90;;;;;;4382496;28;658370;-72
2021/10/01 04:53:40;;;;;;;26.70;11.27;;;4.00;99.90;;;;;;4427733;28;657151;-72
2021/10/01 04:56:29;;;;;;;15.93;8.67;;;4.00;99.90;;;;;;4395956;28;657537;-72
2021/10/01 04:59:16;;;;;;;13.83;8.37;;;4.10;99.90;;;;;;4378297;28;655471;-72
2021/10/01 05:02:04;;;;;;;13.83;8.10;;;4.10;99.90;;;;;;4371563;28;656481;-72
2021/10/01 05:04:55;;;;;;;18.87;8.00;;;4.20;99.90;;;;;;4385475;28;655595;-72
2021/10/01 05:07:42;;;;;;;12.53;7.93;;;4.30;99.90;;;;;;4402487;28;656530;-73
2021/10/01 05:10:30;;;;;;;12.97;7.80;;;4.30;99.90;;;;;;4424475;28;655834;-71
2021/10/01 05:13:19;;;;;;;13.50;8.13;;;4.40;99.90;;;;;;4398604;28;656709;-71
2021/10/01 05:16:07;;;;;;;15.40;8.50;;;4.40;99.90;;;;;;4403976;28;655689;-72
2021/10/01 05:18:55;;;;;;;17.10;8.93;;;4.50;99.90;;;;;;4416578;28;655156;-71
2021/10/01 05:21:43;;;;;;;18.07;8.50;;;4.60;99.90;;;;;;4421783;28;656617;-72
2021/10/01 05:24:31;;;;;;;13.32;8.02;;;4.60;99.90;;;;;;4401290;28;656160;-72
2021/10/01 05:27:18;;;;;;;20.10;7.87;;;4.70;99.90;;;;;;4418032;28;655556;-72
2021/10/01 05:30:08;;;;;;;16.57;8.73;;;4.80;99.90;;;;;;4402453;28;655958;-72
2021/10/01 05:32:56;;;;;;;15.27;8.13;;;4.80;99.90;;;;;;4390713;28;656462;-71
2021/10/01 05:35:44;;;;;;;17.90;9.73;;;5.00;99.90;;;;;;4428283;28;656958;-72
2021/10/01 05:38:32;;;;;;;18.90;10.23;;;5.00;99.90;;;;;;4392053;28;655676;-72
2021/10/01 05:41:21;;;;;;;22.93;10.07;;;5.20;99.90;;;;;;4430348;28;656856;-72
2021/10/01 05:44:11;;;;;;;32.07;17.00;;;5.30;99.90;;;;;;4405295;28;657006;-72
2021/10/01 05:47:05;;;;;;;35.13;15.63;;;5.40;99.90;;;;;;4383208;28;656291;-73
2021/10/01 05:50:02;;;;;;;51.50;21.83;;;5.60;99.90;;;;;;4396423;28;657240;-72
2021/10/01 05:52:54;;;;;;;39.27;20.97;;;5.70;99.90;;;;;;4397118;28;657169;-71
2021/10/01 05:55:45;;;;;;;41.40;20.77;;;5.90;99.90;;;;;;4378729;28;657201;-72
2021/10/01 05:58:41;;;;;;;47.87;25.23;;;6.00;99.90;;;;;;4395085;28;657161;-71
2021/10/01 06:01:35;;;;;;;43.37;23.20;;;6.20;99.90;;;;;;4378638;28;656708;-71
2021/10/01 06:04:25;;;;;;;35.70;20.52;;;6.40;99.90;;;;;;4399061;28;656715;-72
2021/10/01 06:07:14;;;;;;;40.30;19.63;;;6.50;99.90;;;;;;4407020;28;657238;-72
2021/10/01 06:10:09;;;;;;;30.63;16.70;;;6.70;99.90;;;;;;4397886;28;656872;-72
2021/10/01 06:12:58;;;;;;;35.50;17.87;;;6.90;99.90;;;;;;4371034;28;657854;-72
2021/10/01 06:15:47;;;;;;;38.30;20.27;;;7.10;99.90;;;;;;4391969;28;657191;-72
2021/10/01 06:18:38;;;;;;;48.92;22.55;;;7.30;99.90;;;;;;4417604;28;656890;-71
2021/10/01 06:21:33;;;;;;;47.67;23.07;;;7.50;99.90;;;;;;4370206;28;656688;-72
2021/10/01 06:24:21;;;;;;;45.50;23.90;;;7.80;99.90;;;;;;4367821;28;656739;-73
2021/10/01 06:27:08;;;;;;;43.23;22.70;;;8.00;99.90;;;;;;4415945;28;657402;-72
2021/10/01 06:29:57;;;;;;;66.70;27.97;;;8.30;99.90;;;;;;4401624;28;656724;-72
2021/10/01 06:32:47;;;;;;;43.37;21.93;;;8.50;99.90;;;;;;4425482;28;656691;-72
2021/10/01 06:35:38;;;;;;;45.13;23.00;;;8.70;99.90;;;;;;4396784;28;657285;-71
2021/10/01 06:38:31;;;;;;;41.17;22.40;;;8.90;99.90;;;;;;4371260;28;656882;-71
2021/10/01 06:41:19;;;;;;;40.23;20.23;;;9.10;99.90;;;;;;4391495;28;657572;-72
2021/10/01 06:44:15;;;;;;;36.93;21.77;;;9.20;99.90;;;;;;4403232;28;656531;-72
2021/10/01 06:47:05;;;;;;;36.87;22.37;;;9.40;99.90;;;;;;4374692;28;657105;-73
2021/10/01 06:50:09;;;;;;;39.27;20.50;;;9.60;99.90;;;;;;4386608;28;658081;-72
2021/10/01 07:20:47;;;;;;;34.23;19.93;;;9.70;99.90;;;;;;4355430;28;656838;-72
2021/10/01 08:20:46;;;;;;;11.63;6.75;;;13.80;99.90;;;;;;4279400;29;656903;-72
2021/10/01 08:23:37;;;;;;;13.87;6.93;;;14.00;99.90;;;;;;4294462;29;656590;-72
2021/10/01 08:26:25;;;;;;;10.60;5.50;;;14.10;99.90;;;;;;4277510;29;656829;-73
2021/10/01 08:29:13;;;;;;;7.63;4.43;;;14.20;99.90;;;;;;4274240;29;657173;-72
2021/10/01 08:32:02;;;;;;;8.33;4.57;;;14.30;99.90;;;;;;4277792;29;655955;-72
2021/10/01 08:34:50;;;;;;;14.10;6.78;;;14.30;99.90;;;;;;4309251;29;656025;-72
2021/10/01 08:37:38;;;;;;;13.57;6.27;;;14.50;99.90;;;;;;4286187;29;657898;-72
2021/10/01 08:40:26;;;;;;;14.37;7.90;;;14.60;99.90;;;;;;4339721;28;657232;-72
2021/10/01 08:43:16;;;;;;;10.87;5.43;;;14.80;99.90;;;;;;4336674;28;657049;-72
2021/10/01 08:46:05;;;;;;;13.10;6.20;;;14.90;99.90;;;;;;4325772;28;657726;-72
2021/10/01 08:48:55;;;;;;;20.77;9.43;;;15.10;99.90;;;;;;4342447;28;658622;-72
2021/10/01 08:51:43;;;;;;;13.40;6.93;;;15.40;99.90;;;;;;4345953;28;657344;-72
2021/10/01 08:54:31;;;;;;;12.90;5.77;;;15.70;99.90;;;;;;4386369;28;656684;-72
2021/10/01 08:57:20;;;;;;;11.77;6.00;;;15.70;99.90;;;;;;4400403;28;657375;-72
2021/10/01 09:00:11;;;;;;;9.57;5.87;;;16.00;99.90;;;;;;4383477;28;657825;-72
2021/10/01 09:02:58;;;;;;;13.17;6.80;;;15.90;99.90;;;;;;4372281;28;656002;-72
2021/10/01 09:05:47;;;;;;;10.60;5.53;;;16.00;99.90;;;;;;4382899;28;656125;-73
2021/10/01 09:08:48;;;;;;;11.57;5.07;;;16.00;99.90;;;;;;4399503;28;656727;-73
2021/10/01 09:11:37;;;;;;;11.50;5.73;;;16.00;99.90;;;;;;4382060;28;656594;-73
2021/10/01 09:14:24;;;;;;;10.57;5.67;;;16.00;99.90;;;;;;4416087;28;656760;-72
2021/10/01 09:17:14;;;;;;;11.53;6.33;;;15.90;99.90;;;;;;4394735;28;657385;-73
2021/10/01 09:20:01;;;;;;;12.90;6.50;;;16.00;99.90;;;;;;4377804;28;656233;-73
2021/10/01 09:22:51;;;;;;;14.60;6.90;;;16.30;99.90;;;;;;4401651;28;656936;-73
2021/10/01 09:25:39;;;;;;;12.20;6.57;;;16.40;99.90;;;;;;4400078;28;657149;-73
2021/10/01 09:28:26;;;;;;;11.77;6.93;;;16.60;99.90;;;;;;4381720;28;656636;-72
2021/10/01 09:31:37;;;;;;;14.27;6.60;;;16.90;99.90;;;;;;4411381;28;657886;-72
2021/10/01 09:34:36;;;;;;;13.63;7.23;;;17.10;99.90;;;;;;4383702;28;656817;-73
2021/10/01 09:37:30;;;;;;;15.37;7.63;;;17.10;99.90;;;;;;4380531;28;656885;-73
2021/10/01 09:40:19;;;;;;;14.03;8.37;;;17.30;99.90;;;;;;4338809;28;657429;-72
2021/10/01 09:43:17;;;;;;;14.57;8.60;;;17.30;99.90;;;;;;4364767;28;657384;-72
2021/10/01 09:46:08;;;;;;;16.13;8.63;;;17.30;99.90;;;;;;4396216;28;656625;-72
2021/10/01 09:48:58;;;;;;;14.10;7.70;;;17.50;99.90;;;;;;4371547;28;656605;-74
2021/10/01 09:51:50;;;;;;;12.73;7.67;;;17.30;99.90;;;;;;4408580;28;657286;-73
2021/10/01 09:54:37;;;;;;;23.33;7.67;;;17.60;99.90;;;;;;4394473;28;657486;-72
2021/10/01 09:57:26;;;;;;;15.27;8.63;;;17.60;99.90;;;;;;4413995;28;656523;-71
2021/10/01 10:00:34;;;;;;;16.57;8.07;;;17.60;99.90;;;;;;4400531;28;656535;-72
2021/10/01 10:03:30;;;;;;;18.13;8.43;;;17.70;99.90;;;;;;4345829;28;656587;-72
2021/10/01 10:06:19;;;;;;;20.67;9.43;;;17.90;99.90;;;;;;4374214;28;657030;-71
2021/10/01 10:09:07;;;;;;;20.30;9.60;;;18.00;99.90;;;;;;4390039;28;656281;-72
2021/10/01 10:11:54;;;;;;;16.43;8.30;;;18.10;99.90;;;;;;4401800;28;657395;-72
2021/10/01 10:14:48;;;;;;;12.30;7.47;;;18.20;99.90;;;;;;4375577;28;656732;-72
2021/10/01 10:17:41;;;;;;;16.43;8.20;;;18.10;99.90;;;;;;4355563;28;657300;-72
2021/10/01 10:20:28;;;;;;;18.00;9.10;;;18.30;99.90;;;;;;4387770;28;657011;-72
2021/10/01 10:23:16;;;;;;;14.70;8.87;;;18.60;99.90;;;;;;4358428;28;657096;-72
2021/10/01 10:26:04;;;;;;;18.67;10.07;;;19.00;99.90;;;;;;4399427;28;657156;-72
2021/10/01 10:28:53;;;;;;;17.10;9.10;;;19.00;99.90;;;;;;4377265;28;658631;-72
2021/10/01 10:31:44;;;;;;;14.97;8.10;;;19.20;99.90;;;;;;4404549;28;656600;-72
2021/10/01 10:34:33;;;;;;;10.37;7.23;;;19.30;99.90;;;;;;4372500;28;657217;-73
2021/10/01 10:37:22;;;;;;;13.37;7.73;;;19.40;99.90;;;;;;4374139;28;656883;-72
2021/10/01 10:40:11;;;;;;;13.13;7.57;;;19.50;99.90;;;;;;4418253;28;657327;-71
2021/10/01 10:43:03;;;;;;;16.43;9.70;;;19.60;99.90;;;;;;4388930;28;657810;-72
2021/10/01 10:45:51;;;;;;;15.90;8.60;;;20.00;99.90;;;;;;4353676;28;657139;-72
2021/10/01 10:48:40;;;;;;;15.33;8.57;;;20.20;99.90;;;;;;4405784;28;655949;-72
2021/10/01 10:51:38;;;;;;;23.03;10.80;;;20.40;99.90;;;;;;4368385;28;658198;-72
2021/10/01 10:54:25;;;;;;;15.83;8.50;;;20.30;99.90;;;;;;4376642;28;657921;-72
2021/10/01 10:57:29;;;;;;;13.33;8.03;;;20.60;99.90;;;;;;4413141;28;658064;-72
2021/10/01 11:00:29;;;;;;;15.70;8.90;;;20.50;99.90;;;;;;4363618;28;657580;-72
2021/10/01 11:03:19;;;;;;;13.27;8.33;;;20.70;99.90;;;;;;4378674;28;656515;-72
2021/10/01 11:06:18;;;;;;;21.93;10.77;;;21.10;99.90;;;;;;4357330;28;658338;-72
2021/10/01 11:09:25;;;;;;;13.07;8.00;;;20.90;99.90;;;;;;4372094;28;657432;-72
2021/10/01 11:12:26;;;;;;;17.27;8.83;;;20.70;99.90;;;;;;4361432;28;656570;-73
2021/10/01 11:15:18;;;;;;;23.23;11.67;;;21.00;99.90;;;;;;4396014;28;656499;-72
2021/10/01 11:18:14;;;;;;;13.68;8.73;;;21.10;99.90;;;;;;4368687;28;658095;-73
2021/10/01 11:21:02;;;;;;;14.03;8.90;;;21.20;99.90;;;;;;4371445;28;657205;-71
2021/10/01 11:23:57;;;;;;;14.03;8.13;;;21.20;99.90;;;;;;4413296;28;657119;-73
2021/10/01 11:26:47;;;;;;;14.90;8.67;;;21.10;99.90;;;;;;4409977;28;656749;-73
2021/10/01 11:29:36;;;;;;;17.30;8.23;;;21.30;99.90;;;;;;4413398;28;656949;-72
2021/10/01 11:32:25;;;;;;;13.03;6.57;;;21.40;99.90;;;;;;4381468;28;658087;-72
2021/10/01 11:35:13;;;;;;;10.67;7.47;;;21.50;99.90;;;;;;4405697;28;657109;-72
2021/10/01 11:38:00;;;;;;;10.83;7.20;;;21.60;99.90;;;;;;4403560;28;657583;-72
2021/10/01 11:40:49;;;;;;;10.43;6.23;;;21.70;99.20;;;;;;4429028;28;656860;-72
2021/10/01 11:43:51;;;;;;;13.20;6.30;;;21.80;99.60;;;;;;4399333;28;656993;-72
2021/10/01 11:46:40;;;;;;;10.97;5.57;;;21.80;98.60;;;;;;4383164;28;656599;-73
2021/10/01 11:49:28;;;;;;;6.20;4.37;;;21.40;99.10;;;;;;4395433;28;657097;-72
2021/10/01 11:52:17;;;;;;;11.80;5.03;;;21.90;99.10;;;;;;4393659;28;656194;-72
2021/10/01 11:55:06;;;;;;;10.73;5.23;;;22.00;98.10;;;;;;4399815;28;657125;-73
2021/10/01 11:57:55;;;;;;;14.53;7.00;;;22.20;97.70;;;;;;4395641;28;657050;-73
2021/10/01 12:00:42;;;;;;;9.93;5.20;;;22.30;98.10;;;;;;4396084;28;656976;-74
2021/10/01 12:03:30;;;;;;;8.23;4.60;;;22.60;97.90;;;;;;4423808;28;655572;-73
2021/10/01 12:06:21;;;;;;;9.83;4.43;;;22.50;95.70;;;;;;4373823;28;657421;-72
2021/10/01 12:09:09;;;;;;;6.50;4.10;;;22.70;95.10;;;;;;4388467;28;656459;-72
2021/10/01 12:11:57;;;;;;;5.70;4.30;;;22.30;95.90;;;;;;4384457;28;655940;-72
2021/10/01 12:14:49;;;;;;;6.93;4.40;;;22.10;96.20;;;;;;4414510;28;655649;-72
2021/10/01 12:17:40;;;;;;;6.83;4.40;;;22.60;96.70;;;;;;4392877;28;656070;-72
2021/10/01 12:20:27;;;;;;;6.77;4.20;;;22.60;95.30;;;;;;4388573;28;656259;-72
2021/10/01 12:23:24;;;;;;;10.07;4.30;;;22.50;95.40;;;;;;4407967;28;655584;-72
2021/10/01 12:26:26;;;;;;;9.17;4.57;;;22.60;95.40;;;;;;4380103;28;657010;-72
2021/10/01 12:29:14;;;;;;;8.27;5.10;;;22.70;94.60;;;;;;4373413;28;656332;-72
2021/10/01 12:32:04;;;;;;;6.77;4.63;;;22.80;94.40;;;;;;4376035;28;657509;-72
2021/10/01 12:34:55;;;;;;;9.67;5.83;;;22.80;94.20;;;;;;4371761;28;657459;-73
2021/10/01 12:37:44;;;;;;;7.72;4.50;;;22.80;94.50;;;;;;4372848;28;655986;-73
2021/10/01 12:40:34;;;;;;;6.47;4.53;;;22.90;93.70;;;;;;4367769;28;657340;-72
2021/10/01 12:43:22;;;;;;;11.10;6.90;;;23.20;93.90;;;;;;4363669;28;656376;-72
2021/10/01 12:46:10;;;;;;;15.07;9.33;;;23.40;93.40;;;;;;4382009;28;657309;-72
2021/10/01 12:49:14;;;;;;;14.33;8.80;;;23.20;93.30;;;;;;4391699;28;658185;-72
2021/10/01 12:52:07;;;;;;;8.37;5.83;;;23.20;94.20;;;;;;4399874;28;657486;-72
2021/10/01 12:54:56;;;;;;;9.17;4.87;;;23.50;92.60;;;;;;4388789;28;656599;-72
2021/10/01 12:57:44;;;;;;;7.13;4.53;;;23.90;92.30;;;;;;4385796;28;658267;-72
2021/10/01 13:00:32;;;;;;;8.97;5.50;;;23.70;92.80;;;;;;4395536;28;656992;-73
2021/10/01 13:03:20;;;;;;;6.50;4.40;;;24.10;91.90;;;;;;4405992;28;657229;-72
2021/10/01 13:06:29;;;;;;;7.18;3.47;;;24.20;90.90;;;;;;4386504;28;657688;-72
2021/10/01 13:09:37;;;;;;;15.80;7.38;;;24.50;89.50;;;;;;4382970;28;656654;-72
2021/10/01 13:12:36;;;;;;;9.68;4.70;;;24.40;88.30;;;;;;4386730;28;657940;-72
2021/10/01 13:15:25;;;;;;;6.97;3.90;;;24.40;86.30;;;;;;4380542;28;656594;-72
2021/10/01 13:18:31;;;;;;;8.60;5.35;;;24.00;88.20;;;;;;4373010;28;657790;-72
2021/10/01 13:21:21;;;;;;;16.20;9.88;;;24.40;88.50;;;;;;4369016;28;656987;-71
2021/10/01 13:24:09;;;;;;;7.53;4.60;;;24.50;86.20;;;;;;4362316;28;657966;-72
2021/10/01 13:26:57;;;;;;;11.27;7.63;;;24.60;86.30;;;;;;4347682;28;656424;-72
2021/10/01 13:29:44;;;;;;;9.82;6.18;;;24.60;85.00;;;;;;4409997;28;658705;-71
2021/10/01 13:32:32;;;;;;;9.77;5.32;;;25.00;85.40;;;;;;4389620;28;656526;-72
2021/10/01 13:35:21;;;;;;;7.35;3.65;;;25.40;82.50;;;;;;4422398;28;657295;-72
2021/10/01 13:38:10;;;;;;;5.03;3.60;;;25.10;82.30;;;;;;4394755;28;656221;-71
2021/10/01 13:40:59;;;;;;;21.80;12.18;;;25.70;82.20;;;;;;4382861;28;657247;-72
2021/10/01 13:43:47;;;;;;;7.47;3.92;;;26.00;80.70;;;;;;4405965;28;658763;-72
2021/10/01 13:46:35;;;;;;;7.90;4.60;;;26.50;78.50;;;;;;4431719;28;657601;-72
2021/10/01 13:49:23;;;;;;;5.10;3.60;;;26.80;75.60;;;;;;4399477;28;657742;-72
2021/10/01 13:52:11;;;;;;;5.05;3.42;;;27.00;75.20;;;;;;4413282;28;657662;-73
2021/10/01 13:55:02;;;;;;;6.30;3.22;;;26.40;74.00;;;;;;4432530;28;656576;-72
2021/10/01 13:57:50;;;;;;;11.02;4.97;;;26.60;74.10;;;;;;4404202;28;657632;-73
2021/10/01 14:00:38;;;;;;;7.90;4.90;;;26.60;73.00;;;;;;4435780;28;659078;-72
2021/10/01 14:03:26;;;;;;;7.57;3.97;;;27.10;71.50;;;;;;4394234;28;657034;-72
2021/10/01 14:06:14;;;;;;;7.07;3.90;;;27.70;70.60;;;;;;4406679;28;657939;-72
2021/10/01 14:09:01;;;;;;;5.20;3.70;;;27.80;68.90;;;;;;4359348;28;656707;-73
2021/10/01 14:11:51;;;;;;;6.13;3.00;;;28.50;67.50;;;;;;4411697;28;656704;-72
2021/10/01 14:14:39;;;;;;;5.88;2.97;;;28.30;67.00;;;;;;4382662;28;656871;-72
2021/10/01 14:17:27;;;;;;;4.03;2.92;;;29.10;65.50;;;;;;4408387;28;656871;-72
2021/10/01 14:20:15;;;;;;;5.85;3.38;;;29.30;63.10;;;;;;4427979;28;657085;-72
2021/10/01 14:23:03;;;;;;;7.18;2.75;;;29.70;62.20;;;;;;4410012;28;657271;-71
2021/10/01 14:25:51;;;;;;;7.63;3.00;;;29.80;60.60;;;;;;4414224;28;656648;-72
2021/10/01 14:28:40;;;;;;;5.13;2.70;;;30.20;59.10;;;;;;4419619;28;656851;-72
2021/10/01 14:31:28;;;;;;;5.47;3.30;;;29.90;59.00;;;;;;4406526;28;657408;-71
2021/10/01 14:34:16;;;;;;;6.13;2.95;;;30.00;58.60;;;;;;4412012;28;656762;-72
2021/10/01 14:37:04;;;;;;;8.55;3.20;;;30.00;58.30;;;;;;4420597;28;659090;-71
2021/10/01 14:39:52;;;;;;;4.10;2.65;;;29.50;58.60;;;;;;4399952;28;656720;-74
2021/10/01 14:42:40;;;;;;;5.03;2.90;;;29.60;58.90;;;;;;4420186;28;656414;-72
2021/10/01 14:45:29;;;;;;;8.65;3.40;;;28.90;58.50;;;;;;4395000;28;657112;-72
2021/10/01 14:48:16;;;;;;;6.53;3.17;;;28.70;59.50;;;;;;4399415;28;656366;-72
2021/10/01 14:51:04;;;;;;;8.60;5.70;;;28.80;59.50;;;;;;4432229;28;658620;-72
2021/10/01 14:53:52;;;;;;;10.75;5.40;;;28.30;60.00;;;;;;4398558;28;658213;-72
2021/10/01 14:56:39;;;;;;;9.15;5.32;;;28.00;60.80;;;;;;4429929;28;657448;-72
2021/10/01 14:59:27;;;;;;;12.52;5.47;;;27.90;60.80;;;;;;4404511;28;656753;-71
2021/10/01 15:02:16;;;;;;;6.72;4.35;;;27.90;61.70;;;;;;4407134;28;657490;-72
2021/10/01 15:05:07;;;;;;;10.90;5.70;;;27.30;62.30;;;;;;4393579;28;657286;-72
2021/10/01 15:07:54;;;;;;;14.00;7.72;;;26.90;62.90;;;;;;4395455;28;658472;-72
2021/10/01 15:10:42;;;;;;;6.90;5.03;;;26.50;64.30;;;;;;4395157;28;657411;-72
2021/10/01 15:13:29;;;;;;;11.13;6.60;;;26.20;65.10;;;;;;4428261;28;656799;-72
2021/10/01 15:16:17;;;;;;;15.60;8.63;;;25.20;67.20;;;;;;4421213;28;657428;-73
2021/10/01 15:19:06;;;;;;;13.93;7.90;;;24.50;69.40;;;;;;4429114;28;658358;-73
2021/10/01 15:21:54;;;;;;;13.13;8.33;;;23.30;72.10;;;;;;4392664;28;658355;-72
2021/10/01 15:24:41;;;;;;;23.77;11.93;;;23.10;73.40;;;;;;4409198;28;658103;-74
2021/10/01 15:27:29;;;;;;;12.63;8.27;;;22.70;75.00;;;;;;4427529;28;659155;-73
2021/10/01 15:30:17;;;;;;;12.07;6.70;;;22.60;76.40;;;;;;4404659;28;658488;-73
2021/10/01 15:33:06;;;;;;;16.27;7.23;;;22.40;77.00;;;;;;4428460;28;657721;-73
2021/10/01 15:35:55;;;;;;;15.70;8.20;;;22.50;76.90;;;;;;4423427;28;657419;-74
2021/10/01 15:38:43;;;;;;;9.00;4.63;;;22.20;77.80;;;;;;4388779;28;658739;-74
2021/10/01 15:41:31;;;;;;;12.07;5.40;;;21.30;79.60;;;;;;4394969;28;656551;-74
2021/10/01 15:44:19;;;;;;;6.07;4.20;;;20.40;83.10;;;;;;4416985;28;658043;-74
2021/10/01 15:47:08;;;;;;;9.60;4.50;;;19.30;88.40;;;;;;4404560;28;656818;-72
2021/10/01 15:49:56;;;;;;;7.33;4.33;;;18.60;92.40;;;;;;4403952;28;656982;-73
2021/10/01 15:52:47;;;;;;;13.20;8.07;;;17.80;96.80;;;;;;4414192;28;657090;-73
2021/10/01 15:55:34;;;;;;;23.60;13.67;;;17.20;99.90;;;;;;4396127;28;657575;-72